createdAt,value
2019-06-15T00:00:29.311Z,14.70
2019-06-15T00:02:55.376Z,15.00
2019-06-15T00:05:21.432Z,15.10
2019-06-15T00:07:47.505Z,13.87
2019-06-15T00:10:13.877Z,15.00
2019-06-15T00:12:39.928Z,15.13
2019-06-15T00:15:06.885Z,15.00
2019-06-15T00:17:32.972Z,14.50
2019-06-15T00:19:59.024Z,13.90
2019-06-15T00:22:25.084Z,14.80
2019-06-15T00:24:51.142Z,13.87
2019-06-15T00:27:17.213Z,15.67
2019-06-15T00:29:43.273Z,15.00
2019-06-15T00:32:09.326Z,15.80
2019-06-15T00:34:35.399Z,15.23
2019-06-15T00:37:04.614Z,16.20
2019-06-15T00:39:29.436Z,15.80
2019-06-15T00:41:55.492Z,14.50
2019-06-15T00:44:21.553Z,14.47
2019-06-15T00:46:47.620Z,14.90
2019-06-15T00:49:13.692Z,15.60
2019-06-15T00:51:39.740Z,14.70
2019-06-15T00:54:05.805Z,16.53
2019-06-15T00:56:31.879Z,14.83
2019-06-15T00:58:58.130Z,15.20
2019-06-15T01:01:24.220Z,15.50
2019-06-15T01:03:52.256Z,15.80
2019-06-15T01:06:18.425Z,16.97
2019-06-15T01:08:44.506Z,15.50
2019-06-15T01:11:10.793Z,15.53
2019-06-15T01:13:36.940Z,15.20
2019-06-15T01:16:03.100Z,13.33
2019-06-15T01:18:29.191Z,14.53
2019-06-15T01:20:55.339Z,15.60
2019-06-15T01:23:21.375Z,15.10
2019-06-15T01:25:47.455Z,14.17
2019-06-15T01:28:13.514Z,14.87
2019-06-15T01:30:39.568Z,14.33
2019-06-15T01:33:05.643Z,14.37
2019-06-15T01:35:31.687Z,15.07
2019-06-15T01:37:57.739Z,13.83
2019-06-15T01:40:23.814Z,13.93
2019-06-15T01:42:49.859Z,15.27
2019-06-15T01:45:19.729Z,13.83
2019-06-15T01:47:45.800Z,15.17
2019-06-15T01:50:12.051Z,14.40
2019-06-15T01:52:38.113Z,13.20
2019-06-15T01:55:17.425Z,14.30
2019-06-15T01:57:33.627Z,13.97
2019-06-15T01:59:59.701Z,13.20
2019-06-15T02:02:25.752Z,14.60
2019-06-15T02:04:51.812Z,14.90
2019-06-15T02:07:17.885Z,14.23
2019-06-15T02:09:43.935Z,13.73
2019-06-15T02:12:09.999Z,13.37
2019-06-15T02:14:36.067Z,14.57
2019-06-15T02:17:02.237Z,13.60
2019-06-15T02:19:28.350Z,14.70
2019-06-15T02:21:54.508Z,15.17
2019-06-15T02:24:20.564Z,14.47
2019-06-15T02:26:46.615Z,13.40
2019-06-15T02:29:12.680Z,14.80
2019-06-15T02:31:38.743Z,14.13
2019-06-15T02:34:04.909Z,14.07
2019-06-15T02:36:30.964Z,15.50
2019-06-15T02:38:57.037Z,15.50
2019-06-15T02:41:23.196Z,13.60
2019-06-15T02:43:49.255Z,14.30
2019-06-15T02:46:15.320Z,14.40
2019-06-15T02:48:41.377Z,13.60
2019-06-15T02:51:07.844Z,13.07
2019-06-15T02:53:33.913Z,12.73
2019-06-15T02:55:59.976Z,13.27
2019-06-15T02:58:26.033Z,14.70
2019-06-15T03:01:04.534Z,11.90
2019-06-15T03:03:30.694Z,12.77
2019-06-15T03:06:18.545Z,13.70
2019-06-15T03:08:44.591Z,13.07
2019-06-15T03:11:10.672Z,13.90
2019-06-15T03:13:36.758Z,12.83
2019-06-15T03:16:04.790Z,12.73
2019-06-15T03:18:30.875Z,13.10
2019-06-15T03:20:56.929Z,12.80
2019-06-15T03:23:23.093Z,13.20
2019-06-15T03:25:49.153Z,13.93
2019-06-15T03:28:15.206Z,13.33
2019-06-15T03:30:41.270Z,13.50
2019-06-15T03:33:07.325Z,13.27
2019-06-15T03:35:33.387Z,13.13
2019-06-15T03:37:59.440Z,13.37
2019-06-15T03:40:25.516Z,15.17
2019-06-15T03:42:51.581Z,13.20
2019-06-15T03:45:17.749Z,14.07
2019-06-15T03:47:43.796Z,11.87
2019-06-15T03:50:10.174Z,12.93
2019-06-15T03:52:36.230Z,13.47
2019-06-15T03:55:03.616Z,12.30
2019-06-15T03:57:29.716Z,12.30
2019-06-15T03:59:55.767Z,12.40
2019-06-15T04:02:21.822Z,11.63
2019-06-15T04:04:47.992Z,12.17
2019-06-15T04:07:14.144Z,11.40
2019-06-15T04:09:40.317Z,11.50
2019-06-15T04:12:06.379Z,12.30
2019-06-15T04:14:32.428Z,12.47
2019-06-15T04:16:58.514Z,11.30
2019-06-15T04:19:24.576Z,11.93
2019-06-15T04:21:50.643Z,12.23
2019-06-15T04:24:16.719Z,11.60
2019-06-15T04:26:42.764Z,10.60
2019-06-15T04:29:08.824Z,11.83
2019-06-15T04:31:34.892Z,11.60
2019-06-15T04:34:00.943Z,12.50
2019-06-15T04:36:27.026Z,10.60
2019-06-15T04:38:53.128Z,11.10
2019-06-15T04:41:19.384Z,12.50
2019-06-15T04:43:45.497Z,11.90
2019-06-15T04:46:11.939Z,11.50
2019-06-15T04:48:38.003Z,10.10
2019-06-15T04:51:04.360Z,11.30
2019-06-15T04:53:30.611Z,11.40
2019-06-15T04:55:56.737Z,10.53
2019-06-15T04:58:22.787Z,10.30
2019-06-15T05:00:49.065Z,10.80
2019-06-15T05:03:15.329Z,11.20
2019-06-15T05:05:41.432Z,10.00
2019-06-15T05:08:07.493Z,10.33
2019-06-15T05:10:33.556Z,10.57
2019-06-15T05:12:59.607Z,10.10
2019-06-15T05:15:25.669Z,9.90
2019-06-15T05:17:51.759Z,10.23
2019-06-15T05:20:17.821Z,9.80
2019-06-15T05:22:43.878Z,10.50
2019-06-15T05:25:10.131Z,10.63
2019-06-15T05:27:36.200Z,10.10
2019-06-15T05:30:08.128Z,9.40
2019-06-15T05:32:34.183Z,9.53
2019-06-15T05:35:00.346Z,10.80
2019-06-15T05:37:26.414Z,9.90
2019-06-15T05:39:52.469Z,10.10
2019-06-15T05:42:18.557Z,9.83
2019-06-15T05:44:44.626Z,10.30
2019-06-15T05:47:10.684Z,9.47
2019-06-15T05:49:36.836Z,10.60
2019-06-15T05:52:03.438Z,10.00
2019-06-15T05:54:29.581Z,10.53
2019-06-15T05:56:55.669Z,11.03
2019-06-15T05:59:21.845Z,10.00
2019-06-15T06:01:47.958Z,10.80
2019-06-15T06:04:14.014Z,10.20
2019-06-15T06:06:40.224Z,11.33
2019-06-15T06:09:06.450Z,9.93
2019-06-15T06:11:32.512Z,9.33
2019-06-15T06:13:58.675Z,9.60
2019-06-15T06:16:24.719Z,10.37
2019-06-15T06:18:50.802Z,10.10
2019-06-15T06:21:16.861Z,10.10
2019-06-15T06:23:42.929Z,11.03
2019-06-15T06:26:09.161Z,10.13
2019-06-15T06:28:35.366Z,9.33
2019-06-15T06:31:01.428Z,10.20
2019-06-15T06:33:27.576Z,9.70
2019-06-15T06:35:53.729Z,9.50
2019-06-15T06:38:19.809Z,10.30
2019-06-15T06:40:45.861Z,10.17
2019-06-15T06:43:11.935Z,11.00
2019-06-15T06:45:38.010Z,10.40
2019-06-15T06:48:04.152Z,10.20
2019-06-15T06:50:30.307Z,8.80
2019-06-15T06:52:56.379Z,9.10
2019-06-15T06:55:22.769Z,10.33
2019-06-15T06:57:53.601Z,8.60
2019-06-15T07:00:16.976Z,9.33
2019-06-15T07:02:43.044Z,9.67
2019-06-15T07:05:10.213Z,8.87
2019-06-15T07:07:36.255Z,7.90
2019-06-15T07:10:04.723Z,9.47
2019-06-15T07:12:30.790Z,9.13
2019-06-15T07:14:56.860Z,8.60
2019-06-15T07:17:22.917Z,9.67
2019-06-15T07:19:49.102Z,8.07
2019-06-15T07:22:15.152Z,9.07
2019-06-15T07:24:41.204Z,8.63
2019-06-15T07:27:07.272Z,9.00
2019-06-15T07:29:33.343Z,8.57
2019-06-15T07:31:59.393Z,7.80
2019-06-15T07:34:25.469Z,8.80
2019-06-15T07:36:51.512Z,8.73
2019-06-15T07:39:17.571Z,9.10
2019-06-15T07:41:43.646Z,8.73
2019-06-15T07:44:09.721Z,9.40
2019-06-15T07:46:35.768Z,9.10
2019-06-15T07:49:04.893Z,10.37
2019-06-15T07:51:29.800Z,10.00
2019-06-15T07:53:55.857Z,9.27
2019-06-15T07:56:21.912Z,10.23
2019-06-15T07:58:48.349Z,10.73
2019-06-15T08:01:14.767Z,10.77
2019-06-15T08:03:43.336Z,11.23
2019-06-15T08:06:09.517Z,11.63
2019-06-15T08:08:35.940Z,11.13
2019-06-15T08:11:02.465Z,10.83
2019-06-15T08:13:28.896Z,9.50
2019-06-15T08:15:55.328Z,10.40
2019-06-15T08:18:21.806Z,8.93
2019-06-15T08:20:48.244Z,9.20
2019-06-15T08:23:14.671Z,9.43
2019-06-15T08:25:41.088Z,8.37
2019-06-15T08:28:07.525Z,9.20
2019-06-15T08:30:35.900Z,9.40
2019-06-15T08:33:02.344Z,8.90
2019-06-15T08:35:28.775Z,8.63
2019-06-15T08:37:55.193Z,8.90
2019-06-15T08:40:21.612Z,9.13
2019-06-15T08:42:48.086Z,8.47
2019-06-15T08:45:14.611Z,7.47
2019-06-15T08:47:41.036Z,7.83
2019-06-15T08:50:07.638Z,7.70
2019-06-15T08:52:53.960Z,7.03
2019-06-15T08:55:20.444Z,7.97
2019-06-15T08:57:46.961Z,7.43
2019-06-15T09:00:13.838Z,7.47
2019-06-15T09:02:40.440Z,8.90
2019-06-15T09:05:07.772Z,8.73
2019-06-15T09:07:34.208Z,9.03
2019-06-15T09:10:00.628Z,10.60
2019-06-15T09:12:27.058Z,9.57
2019-06-15T09:14:53.492Z,9.50
2019-06-15T09:17:19.926Z,9.17
2019-06-15T09:19:45.968Z,10.87
2019-06-15T09:22:12.061Z,7.97
2019-06-15T09:24:38.201Z,8.03
2019-06-15T09:27:04.562Z,8.30
2019-06-15T09:29:30.801Z,8.47
2019-06-15T09:31:56.884Z,8.07
2019-06-15T09:34:22.945Z,8.00
2019-06-15T09:36:49.006Z,6.63
2019-06-15T09:39:15.109Z,6.60
2019-06-15T09:41:41.509Z,7.00
2019-06-15T09:44:07.655Z,6.80
2019-06-15T09:46:33.707Z,6.90
2019-06-15T09:48:59.797Z,6.30
2019-06-15T09:51:25.850Z,7.30
2019-06-15T09:53:51.914Z,6.57
2019-06-15T09:56:18.840Z,6.80
2019-06-15T09:58:44.926Z,5.83
2019-06-15T10:01:10.979Z,5.90
2019-06-15T10:03:37.046Z,5.07
2019-06-15T10:06:03.314Z,4.73
2019-06-15T10:08:29.425Z,4.60
2019-06-15T10:10:55.506Z,4.80
2019-06-15T10:13:21.561Z,5.90
2019-06-15T10:15:47.712Z,5.30
2019-06-15T10:18:13.774Z,6.30
2019-06-15T10:20:41.147Z,5.83
2019-06-15T10:23:07.329Z,6.10
2019-06-15T10:25:33.413Z,6.13
2019-06-15T10:27:59.460Z,5.13
2019-06-15T10:30:25.564Z,6.00
2019-06-15T10:32:51.633Z,5.73
2019-06-15T10:35:19.579Z,5.37
2019-06-15T10:37:45.713Z,5.17
2019-06-15T10:40:12.263Z,5.30
2019-06-15T10:42:38.429Z,5.60
2019-06-15T10:45:05.784Z,5.13
2019-06-15T10:47:31.852Z,5.33
2019-06-15T10:49:57.982Z,4.67
2019-06-15T10:52:24.075Z,4.37
2019-06-15T10:54:50.139Z,5.00
2019-06-15T10:57:16.267Z,5.07
2019-06-15T10:59:56.322Z,4.77
2019-06-15T11:02:10.375Z,5.23
2019-06-15T11:04:36.457Z,4.27
2019-06-15T11:07:02.518Z,4.53
2019-06-15T11:09:28.574Z,4.60
2019-06-15T11:11:54.755Z,4.90
2019-06-15T11:14:21.009Z,4.50
2019-06-15T11:16:47.702Z,4.77
2019-06-15T11:19:13.840Z,4.33
2019-06-15T11:21:39.909Z,4.70
2019-06-15T11:24:05.987Z,4.30
2019-06-15T11:26:32.152Z,4.33
2019-06-15T11:28:58.225Z,3.67
2019-06-15T11:31:24.275Z,3.87
2019-06-15T11:33:50.332Z,4.17
2019-06-15T11:36:16.413Z,3.93
2019-06-15T11:38:42.493Z,4.50
2019-06-15T11:41:08.840Z,4.17
2019-06-15T11:43:34.914Z,4.73
2019-06-15T11:46:01.083Z,4.00
2019-06-15T11:48:27.142Z,4.00
2019-06-15T11:50:53.198Z,4.93
2019-06-15T11:53:19.266Z,4.40
2019-06-15T11:55:45.486Z,5.07
2019-06-15T11:58:11.545Z,4.30
2019-06-15T12:00:39.607Z,3.70
2019-06-15T12:03:05.672Z,4.00
2019-06-15T12:05:32.040Z,3.63
2019-06-15T12:07:58.099Z,3.50
2019-06-15T12:10:24.153Z,3.57
2019-06-15T12:12:50.241Z,3.33
2019-06-15T12:15:16.305Z,3.10
2019-06-15T12:17:42.378Z,3.07
2019-06-15T12:20:08.839Z,3.30
2019-06-15T12:22:34.921Z,3.20
2019-06-15T12:25:00.969Z,2.90
2019-06-15T12:27:27.029Z,3.30
2019-06-15T12:29:53.092Z,2.93
2019-06-15T12:32:19.148Z,3.40
2019-06-15T12:34:45.212Z,3.23
2019-06-15T12:37:11.275Z,3.40
2019-06-15T12:39:41.569Z,2.80
2019-06-15T12:42:05.363Z,2.70
2019-06-15T12:44:31.608Z,2.77
2019-06-15T12:46:57.730Z,3.07
2019-06-15T12:49:23.859Z,2.90
2019-06-15T12:51:49.916Z,2.40
2019-06-15T12:54:15.976Z,3.03
2019-06-15T12:56:42.044Z,3.17
2019-06-15T12:59:08.155Z,2.30
2019-06-15T13:01:34.221Z,2.43
2019-06-15T13:04:00.316Z,2.80
2019-06-15T13:06:26.472Z,2.70
2019-06-15T13:08:52.527Z,2.50
2019-06-15T13:11:18.583Z,2.50
2019-06-15T13:13:44.665Z,2.53
2019-06-15T13:16:10.750Z,2.60
2019-06-15T13:18:36.959Z,2.30
2019-06-15T13:21:03.054Z,2.70
2019-06-15T13:23:29.110Z,2.90
2019-06-15T13:25:55.191Z,2.93
2019-06-15T13:28:21.354Z,3.30
2019-06-15T13:30:47.421Z,2.70
2019-06-15T13:33:13.481Z,2.63
2019-06-15T13:35:39.536Z,2.63
2019-06-15T13:38:05.625Z,2.80
2019-06-15T13:40:31.687Z,3.03
2019-06-15T13:42:57.800Z,4.10
2019-06-15T13:45:23.980Z,2.73
2019-06-15T13:47:50.045Z,3.40
2019-06-15T13:50:16.116Z,3.00
2019-06-15T13:52:42.194Z,2.40
2019-06-15T13:55:08.750Z,3.47
2019-06-15T13:57:34.900Z,2.60
2019-06-15T14:00:01.269Z,2.67
2019-06-15T14:02:27.347Z,2.90
2019-06-15T14:04:53.425Z,2.50
2019-06-15T14:07:19.563Z,2.90
2019-06-15T14:09:45.637Z,3.00
2019-06-15T14:12:11.717Z,2.60
2019-06-15T14:14:37.763Z,2.47
2019-06-15T14:17:03.825Z,3.43
2019-06-15T14:19:29.901Z,2.70
2019-06-15T14:21:55.968Z,3.30
2019-06-15T14:24:22.028Z,3.23
2019-06-15T14:26:48.468Z,3.17
2019-06-15T14:29:17.444Z,2.87
2019-06-15T14:31:50.033Z,2.83
2019-06-15T14:34:11.641Z,3.43
2019-06-15T14:36:38.068Z,3.40
2019-06-15T14:39:05.086Z,2.97
2019-06-15T14:41:31.528Z,3.77
2019-06-15T14:43:57.956Z,3.20
2019-06-15T14:46:24.005Z,2.70
2019-06-15T14:48:50.156Z,2.90
2019-06-15T14:51:16.214Z,3.57
2019-06-15T14:53:49.922Z,3.20
2019-06-15T14:56:10.739Z,3.10
2019-06-15T14:58:36.800Z,3.17
2019-06-15T15:01:03.064Z,3.50
2019-06-15T15:03:29.119Z,2.97
2019-06-15T15:05:55.186Z,3.67
2019-06-15T15:08:21.339Z,3.50
2019-06-15T15:10:47.489Z,3.17
2019-06-15T15:13:13.568Z,3.30
2019-06-15T15:15:39.928Z,3.10
2019-06-15T15:18:06.995Z,3.17
2019-06-15T15:20:33.204Z,3.20
2019-06-15T15:22:59.367Z,2.90
2019-06-15T15:25:26.292Z,3.30
2019-06-15T15:27:52.958Z,2.33
2019-06-15T15:30:21.296Z,3.13
2019-06-15T15:32:47.355Z,2.80
2019-06-15T15:35:15.957Z,2.67
2019-06-15T15:37:42.098Z,2.70
2019-06-15T15:40:08.473Z,2.77
2019-06-15T15:42:36.901Z,2.70
2019-06-15T15:45:07.135Z,2.83
2019-06-15T15:47:33.110Z,2.53
2019-06-15T15:49:59.529Z,3.37
2019-06-15T15:52:26.862Z,2.53
2019-06-15T15:54:56.301Z,3.60
2019-06-15T15:57:22.120Z,3.50
2019-06-15T15:59:48.574Z,3.17
2019-06-15T16:02:16.053Z,2.77
2019-06-15T16:04:42.716Z,2.90
2019-06-15T16:07:09.287Z,2.27
2019-06-15T16:09:36.045Z,2.90
2019-06-15T16:12:02.730Z,2.83
2019-06-15T16:14:29.161Z,3.20
2019-06-15T16:16:56.038Z,2.43
2019-06-15T16:19:22.611Z,2.83
2019-06-15T16:21:49.028Z,3.00
2019-06-15T16:24:16.700Z,2.60
2019-06-15T16:26:43.387Z,2.80
2019-06-15T16:29:09.817Z,3.20
2019-06-15T16:31:37.459Z,3.10
2019-06-15T16:34:04.627Z,3.50
2019-06-15T16:36:31.066Z,3.03
2019-06-15T16:38:57.496Z,3.30
2019-06-15T16:41:25.867Z,2.90
2019-06-15T16:43:52.248Z,2.60
2019-06-15T16:46:18.685Z,2.87
2019-06-15T16:48:46.870Z,2.80
2019-06-15T16:51:13.461Z,2.57
2019-06-15T16:53:40.027Z,2.50
2019-06-15T16:56:06.525Z,2.20
2019-06-15T16:58:32.975Z,2.97
2019-06-15T17:00:59.392Z,2.37
2019-06-15T17:03:29.052Z,1.80
2019-06-15T17:05:57.179Z,2.57
2019-06-15T17:08:22.580Z,2.57
2019-06-15T17:10:49.014Z,2.57
2019-06-15T17:13:16.021Z,2.47
2019-06-15T17:15:42.652Z,2.10
2019-06-15T17:18:09.166Z,1.90
2019-06-15T17:20:46.597Z,2.10
2019-06-15T17:23:13.252Z,2.10
2019-06-15T17:25:39.684Z,1.80
2019-06-15T17:28:06.105Z,2.10
2019-06-15T17:30:32.533Z,2.07
2019-06-15T17:32:58.986Z,2.23
2019-06-15T17:35:27.348Z,2.07
2019-06-15T17:37:56.280Z,2.10
2019-06-15T17:40:22.162Z,2.73
2019-06-15T17:42:48.600Z,2.97
2019-06-15T17:45:16.189Z,2.17
2019-06-15T17:47:42.820Z,2.43
2019-06-15T17:50:09.471Z,2.17
2019-06-15T17:52:36.022Z,2.17
2019-06-15T17:55:07.194Z,2.40
2019-06-15T17:57:35.902Z,2.80
2019-06-15T18:00:02.077Z,2.27
2019-06-15T18:02:28.414Z,2.70
2019-06-15T18:04:56.549Z,2.50
2019-06-15T18:07:22.612Z,2.30
2019-06-15T18:09:48.687Z,2.30
2019-06-15T18:12:16.311Z,2.17
2019-06-15T18:14:42.618Z,2.20
2019-06-15T18:17:08.663Z,2.50
2019-06-15T18:19:36.954Z,2.40
2019-06-15T18:22:02.733Z,2.47
2019-06-15T18:24:28.806Z,2.37
2019-06-15T18:26:56.482Z,2.20
2019-06-15T18:29:22.639Z,2.23
2019-06-15T18:31:48.704Z,2.10
2019-06-15T18:34:16.978Z,2.33
2019-06-15T18:36:42.749Z,2.50
2019-06-15T18:39:08.801Z,2.90
2019-06-15T18:41:37.076Z,2.70
2019-06-15T18:44:03.046Z,2.50
2019-06-15T18:46:29.101Z,2.47
2019-06-15T18:48:55.169Z,2.50
2019-06-15T18:51:21.352Z,2.50
2019-06-15T18:53:47.505Z,2.87
2019-06-15T18:56:16.164Z,2.37
2019-06-15T18:58:41.523Z,2.50
2019-06-15T19:01:07.599Z,2.50
2019-06-15T19:03:33.859Z,3.07
2019-06-15T19:06:00.019Z,2.40
2019-06-15T19:08:26.162Z,2.30
2019-06-15T19:10:52.405Z,2.47
2019-06-15T19:13:18.485Z,2.70
2019-06-15T19:15:46.468Z,2.47
2019-06-15T19:18:13.284Z,2.83
2019-06-15T19:20:39.354Z,2.30
2019-06-15T19:23:06.808Z,2.70
2019-06-15T19:25:36.142Z,2.30
2019-06-15T19:28:01.586Z,2.47
2019-06-15T19:30:27.719Z,2.17
2019-06-15T19:32:53.767Z,2.87
2019-06-15T19:35:19.937Z,2.70
2019-06-15T19:37:47.081Z,2.77
2019-06-15T19:40:16.028Z,2.87
2019-06-15T19:42:41.644Z,2.77
2019-06-15T19:45:10.684Z,2.60
2019-06-15T19:47:37.918Z,2.50
2019-06-15T19:50:06.553Z,2.73
2019-06-15T19:52:36.044Z,2.70
2019-06-15T19:55:06.609Z,2.80
2019-06-15T19:57:32.107Z,3.13
2019-06-15T19:59:58.166Z,2.90
2019-06-15T20:02:26.841Z,2.67
2019-06-15T20:05:00.401Z,3.00
2019-06-15T20:07:20.669Z,3.43
2019-06-15T20:09:46.725Z,2.80
2019-06-15T20:12:19.013Z,2.80
2019-06-15T20:14:40.765Z,2.80
2019-06-15T20:17:07.352Z,2.60
2019-06-15T20:19:33.676Z,3.07
2019-06-15T20:22:00.827Z,2.93
2019-06-15T20:24:27.208Z,2.93
2019-06-15T20:26:53.294Z,2.50
2019-06-15T20:29:19.365Z,2.80
2019-06-15T20:31:46.282Z,3.17
2019-06-15T20:34:12.485Z,2.70
2019-06-15T20:36:38.644Z,3.80
2019-06-15T20:39:07.118Z,3.10
2019-06-15T20:41:33.510Z,2.90
2019-06-15T20:43:59.588Z,3.10
2019-06-15T20:46:26.416Z,3.10
2019-06-15T20:48:52.640Z,2.80
2019-06-15T20:51:18.694Z,3.17
2019-06-15T20:53:45.982Z,3.17
2019-06-15T20:56:12.231Z,3.50
2019-06-15T20:58:38.319Z,2.90
2019-06-15T21:01:06.854Z,2.60
2019-06-15T21:03:32.362Z,3.00
2019-06-15T21:05:58.505Z,3.20
2019-06-15T21:08:26.727Z,3.00
2019-06-15T21:10:52.533Z,3.10
2019-06-15T21:13:18.596Z,3.50
2019-06-15T21:15:47.449Z,3.70
2019-06-15T21:18:13.133Z,2.93
2019-06-15T21:20:39.191Z,3.30
2019-06-15T21:23:06.679Z,3.70
2019-06-15T21:25:33.038Z,3.30
2019-06-15T21:27:59.088Z,3.33
2019-06-15T21:30:27.105Z,3.40
2019-06-15T21:32:55.842Z,3.10
2019-06-15T21:35:21.179Z,3.50
2019-06-15T21:37:47.241Z,3.97
2019-06-15T21:40:15.993Z,3.70
2019-06-15T21:42:41.570Z,3.70
2019-06-15T21:45:07.864Z,3.67
2019-06-15T21:47:34.020Z,3.50
2019-06-15T21:50:00.092Z,3.60
2019-06-15T21:52:26.712Z,3.60
2019-06-15T21:54:52.820Z,3.43
2019-06-15T21:57:18.887Z,3.73
2019-06-15T21:59:47.317Z,3.80
2019-06-15T22:02:15.772Z,3.70
2019-06-15T22:04:41.650Z,3.13
2019-06-15T22:07:07.763Z,3.77
2019-06-15T22:09:36.208Z,3.70
2019-06-15T22:12:01.817Z,4.07
2019-06-15T22:14:27.859Z,4.10
2019-06-15T22:16:56.728Z,4.00
2019-06-15T22:19:21.881Z,4.10
2019-06-15T22:21:48.008Z,3.60
2019-06-15T22:24:16.156Z,3.80
2019-06-15T22:26:42.110Z,4.30
2019-06-15T22:29:08.206Z,3.27
2019-06-15T22:31:34.290Z,3.90
2019-06-15T22:34:00.388Z,4.40
2019-06-15T22:36:28.622Z,3.80
2019-06-15T22:38:56.841Z,4.03
2019-06-15T22:41:22.380Z,3.70
2019-06-15T22:43:48.449Z,3.43
2019-06-15T22:46:16.644Z,3.40
2019-06-15T22:48:42.660Z,3.73
2019-06-15T22:51:08.733Z,3.53
2019-06-15T22:53:36.558Z,3.60
2019-06-15T22:56:02.989Z,3.50
2019-06-15T22:58:29.196Z,3.93
2019-06-15T23:00:56.786Z,3.80
2019-06-15T23:03:23.126Z,3.67
2019-06-15T23:05:49.180Z,4.13
2019-06-15T23:08:16.311Z,4.13
2019-06-15T23:10:42.602Z,4.10
2019-06-15T23:13:08.648Z,4.70
2019-06-15T23:15:37.004Z,3.70
2019-06-15T23:18:02.688Z,3.90
2019-06-15T23:20:28.726Z,4.10
2019-06-15T23:22:56.093Z,5.00
2019-06-15T23:25:22.452Z,3.90
2019-06-15T23:27:48.520Z,4.47
2019-06-15T23:30:16.112Z,4.57
2019-06-15T23:32:42.749Z,4.20
2019-06-15T23:35:10.506Z,4.30
2019-06-15T23:37:37.587Z,4.10
2019-06-15T23:40:21.363Z,3.77
2019-06-15T23:42:49.043Z,4.23
2019-06-15T23:45:17.592Z,4.10
2019-06-15T23:47:46.460Z,4.50
2019-06-15T23:50:12.017Z,5.40
2019-06-15T23:52:38.075Z,4.80
2019-06-15T23:55:05.686Z,4.93
2019-06-15T23:57:32.048Z,4.30
2019-06-15T23:59:58.229Z,4.53
